Overview Statistics Trail Chart Weather Telemetry Raw packets
 

This is the latest recevied weather packets stored in our database for station/object KG4GJX. If no packets are shown the sender has not sent any weather packets the latest 10 day(s).

<< 14 15 16 17 18 19 20 >>
Time Temp. Humidity Pressure Rain* Wind** Luminosity Snow
1788315455 24.44° C 99% 1019.6 hPa 0 mm - - -
1788314792 24.44° C 98% 1019.3 hPa 0 mm - - -
1788314129 25° C 98% 1019.3 hPa 0 mm - - -
1788312807 25° C 96% 1019.3 hPa 0 mm - - -
1788311485 25.56° C 94% 1019.3 hPa 0 mm - - -
1788310822 25.56° C 93% 1019.3 hPa 0 mm - - -
1788310160 26.11° C 91% 1018.9 hPa 0 mm - - -
1788309498 26.11° C 89% 1018.9 hPa 0 mm - - -
1788308836 26.67° C 86% 1018.9 hPa 0 mm - - -
1788308173 27.22° C 82% 1018.9 hPa 0 mm - - -
1788307511 28.33° C 78% 1018.9 hPa 0 mm - - -
1788306848 29.44° C 76% 1018.9 hPa 0 mm - - -
1788306186 30.56° C 71% 1019.3 hPa 0 mm - - -
1788305523 31.67° C 65% 1019.3 hPa 0 mm - - -
1788304861 32.78° C 61% 1019.3 hPa 0 mm - - -
1788304198 33.89° C 57% 1019.3 hPa 0 mm - - -
1788303536 34.44° C 54% 1019.3 hPa 0 mm - - -
1788302873 35.56° C 50% 1019.3 hPa 0 mm - - -
1788302211 36.67° C 47% 1019.3 hPa 0 mm - - -
1788301548 36.11° C 47% 1019.3 hPa 0 mm - - -
1788300886 36.11° C 46% 1019.3 hPa 0 mm - - -
1788300223 36.11° C 47% 1019.3 hPa 0 mm - - -
1788299561 36.67° C 47% 1019.3 hPa 0 mm - - -
1788298899 36.67° C 44% 1019.3 hPa 0 mm - - -
1788298237 36.67° C 46% 1019.3 hPa 0 mm - - -

* Rain latest hour (hover to see other rain measurements)
** Current wind speed in m/s (hover to see current wind gust speed)